Time;durP1;ratioP1;P1;durP2;ratioP2;P2;SDS_P1;SDS_P2;PMS_P1;PMS_P2;Temp;Humidity;BMP_temperature;BMP_pressure;BME280_temperature;BME280_humidity;BME280_pressure;Samples;Min_cycle;Max_cycle;Signal;HPM_P1;HPM_P2
2022/04/19 00:01:17;;;;;;;5.40;3.90;;;14.20;53.30;;;;;;5011653;28;20212;-73
2022/04/19 00:03:42;;;;;;;4.87;4.40;;;14.30;53.30;;;;;;5015992;28;20176;-71
2022/04/19 00:06:08;;;;;;;5.60;4.50;;;14.30;53.50;;;;;;5014292;28;21296;-73
2022/04/19 00:08:35;;;;;;;5.87;4.97;;;14.20;53.50;;;;;;5009156;28;20173;-73
2022/04/19 00:11:01;;;;;;;7.90;4.73;;;14.00;53.80;;;;;;5012157;28;20263;-73
2022/04/19 00:13:28;;;;;;;5.63;5.03;;;14.10;53.70;;;;;;5012743;28;20454;-72
2022/04/19 00:15:55;;;;;;;5.20;4.63;;;14.00;53.80;;;;;;5013754;28;20457;-74
2022/04/19 00:18:21;;;;;;;8.30;5.20;;;14.00;53.70;;;;;;5012266;28;20964;-71
2022/04/19 00:20:49;;;;;;;6.93;4.70;;;14.00;53.90;;;;;;5009453;28;20439;-73
2022/04/19 00:23:15;;;;;;;6.43;4.33;;;13.90;53.80;;;;;;5009581;28;20549;-73
2022/04/19 00:25:50;;;;;;;5.80;4.60;;;13.90;53.90;;;;;;5013032;28;20450;-71
2022/04/19 00:28:16;;;;;;;6.37;4.67;;;13.90;54.00;;;;;;5012500;28;20434;-72
2022/04/19 00:30:43;;;;;;;4.80;4.40;;;13.80;54.20;;;;;;5012612;28;20427;-73
2022/04/19 00:33:09;;;;;;;4.70;4.13;;;13.60;54.40;;;;;;5011029;28;20454;-71
2022/04/19 00:35:37;;;;;;;4.80;4.13;;;13.50;54.40;;;;;;5010831;28;20819;-70
2022/04/19 00:38:03;;;;;;;5.33;4.60;;;13.50;55.10;;;;;;5011506;28;20450;-72
2022/04/19 00:40:29;;;;;;;4.63;4.13;;;13.50;54.40;;;;;;5011900;28;22299;-72
2022/04/19 00:42:55;;;;;;;4.60;4.10;;;13.30;55.10;;;;;;5013400;28;20811;-73
2022/04/19 00:45:25;;;;;;;7.13;4.00;;;13.20;54.80;;;;;;5008648;28;20442;-73
2022/04/19 00:47:52;;;;;;;6.70;4.30;;;13.30;54.90;;;;;;5013182;28;20177;-73
2022/04/19 00:50:18;;;;;;;4.63;4.23;;;13.10;55.40;;;;;;5011512;28;20802;-72
2022/04/19 00:52:44;;;;;;;5.97;4.33;;;13.10;55.00;;;;;;5013945;28;20455;-74
2022/04/19 00:55:11;;;;;;;5.80;4.43;;;12.80;55.30;;;;;;5014570;28;20450;-71
2022/04/19 00:57:42;;;;;;;6.07;4.10;;;12.80;55.90;;;;;;5013487;28;20493;-72
2022/04/19 01:00:12;;;;;;;5.07;3.97;;;12.80;55.30;;;;;;5011353;28;20855;-73
2022/04/19 01:02:38;;;;;;;5.50;4.70;;;12.90;55.50;;;;;;5009443;28;20478;-73
2022/04/19 01:05:05;;;;;;;4.20;3.70;;;13.00;55.10;;;;;;5012167;28;20514;-73
2022/04/19 01:07:31;;;;;;;5.10;4.20;;;12.90;55.10;;;;;;5011122;28;20445;-73
2022/04/19 01:09:57;;;;;;;5.20;3.70;;;12.70;55.30;;;;;;5010933;28;20435;-75
2022/04/19 01:15:14;;;;;;;6.03;3.80;;;12.80;55.60;;;;;;5019459;28;20243;-73
2022/04/19 01:17:40;;;;;;;4.10;3.70;;;12.60;55.90;;;;;;5019893;28;20486;-71
2022/04/19 01:20:10;;;;;;;4.13;3.73;;;12.70;55.80;;;;;;5016480;28;20485;-72
2022/04/19 01:22:36;;;;;;;4.00;3.60;;;12.80;55.70;;;;;;5008711;28;20454;-72
2022/04/19 01:25:03;;;;;;;6.70;4.23;;;12.60;55.90;;;;;;5007982;28;20450;-73
2022/04/19 01:27:29;;;;;;;4.10;3.70;;;12.70;55.80;;;;;;5013162;28;20518;-73
2022/04/19 01:30:00;;;;;;;4.43;3.90;;;12.70;55.60;;;;;;5018727;28;21133;-71
2022/04/19 01:32:27;;;;;;;6.20;3.90;;;12.70;55.70;;;;;;5015780;28;20202;-72
2022/04/19 01:35:06;;;;;;;5.03;4.03;;;12.70;55.70;;;;;;5009792;28;20969;-71
2022/04/19 01:37:35;;;;;;;8.03;4.43;;;12.70;55.90;;;;;;5011897;28;20445;-72
2022/04/19 01:40:18;;;;;;;5.60;4.80;;;12.70;56.00;;;;;;5011150;28;20909;-73
2022/04/19 01:42:52;;;;;;;5.23;3.97;;;12.60;56.00;;;;;;5014824;28;20565;-71
2022/04/19 01:45:20;;;;;;;5.30;4.80;;;12.50;56.40;;;;;;5014538;28;20435;-74
2022/04/19 01:47:46;;;;;;;4.60;4.10;;;12.50;56.10;;;;;;5014539;28;20431;-75
2022/04/19 01:50:14;;;;;;;4.77;4.30;;;12.60;56.40;;;;;;5010712;28;20532;-72
2022/04/19 01:52:40;;;;;;;4.70;4.10;;;12.40;56.50;;;;;;5016411;28;20490;-74
2022/04/19 01:55:08;;;;;;;4.27;3.87;;;12.40;56.40;;;;;;5014458;28;20438;-74
2022/04/19 01:57:34;;;;;;;6.50;4.30;;;12.40;56.50;;;;;;5017283;28;20466;-74
2022/04/19 02:00:02;;;;;;;5.50;5.00;;;12.40;56.60;;;;;;5011181;28;20435;-74
2022/04/19 02:02:28;;;;;;;6.33;4.77;;;12.30;56.90;;;;;;5015228;28;20482;-74
2022/04/19 02:04:53;;;;;;;4.37;3.97;;;12.30;56.90;;;;;;5010383;28;20443;-74
2022/04/19 02:07:19;;;;;;;5.00;4.20;;;12.30;56.90;;;;;;5010768;28;20537;-71
2022/04/19 02:09:45;;;;;;;4.17;3.77;;;12.10;57.80;;;;;;5014357;28;20187;-75
2022/04/19 02:12:11;;;;;;;4.90;4.40;;;11.90;57.90;;;;;;5013067;28;20211;-74
2022/04/19 02:14:41;;;;;;;8.23;4.30;;;11.90;57.90;;;;;;5015725;28;20965;-73
2022/04/19 02:17:11;;;;;;;5.00;4.30;;;11.90;58.20;;;;;;5011161;28;20738;-73
2022/04/19 02:19:37;;;;;;;6.20;4.50;;;12.00;58.20;;;;;;5009882;28;20440;-71
2022/04/19 02:22:09;;;;;;;6.07;4.50;;;11.90;58.40;;;;;;5003929;28;20550;-73
2022/04/19 02:24:35;;;;;;;4.90;4.47;;;11.90;58.40;;;;;;5011089;28;21022;-72
2022/04/19 02:27:02;;;;;;;6.40;4.20;;;11.90;58.60;;;;;;5012402;28;20501;-71
2022/04/19 02:29:27;;;;;;;6.90;4.70;;;11.90;58.70;;;;;;5010438;28;20443;-73
2022/04/19 02:31:53;;;;;;;5.10;4.60;;;11.80;58.80;;;;;;5013905;28;20472;-71
2022/04/19 02:34:19;;;;;;;6.40;4.30;;;11.90;59.00;;;;;;5011049;28;20215;-73
2022/04/19 02:36:45;;;;;;;5.17;4.03;;;11.70;59.10;;;;;;5008869;28;20180;-73
2022/04/19 02:39:11;;;;;;;7.37;4.87;;;11.70;59.20;;;;;;5010339;28;21177;-73
2022/04/19 02:41:37;;;;;;;5.10;4.40;;;11.50;59.80;;;;;;5008970;28;20471;-71
2022/04/19 02:44:04;;;;;;;5.03;4.30;;;11.50;59.90;;;;;;5028120;28;20431;-71
2022/04/19 02:46:30;;;;;;;5.67;4.03;;;11.60;60.40;;;;;;5010423;28;20454;-73
2022/04/19 02:48:58;;;;;;;5.33;4.83;;;11.70;60.00;;;;;;5009933;28;20435;-75
2022/04/19 02:51:24;;;;;;;4.90;3.80;;;11.70;59.80;;;;;;5021485;28;20232;-72
2022/04/19 02:53:50;;;;;;;4.03;3.63;;;11.60;59.70;;;;;;5015099;28;20851;-74
2022/04/19 02:56:16;;;;;;;6.20;4.20;;;11.50;60.70;;;;;;5012276;28;20627;-74
2022/04/19 02:58:44;;;;;;;4.83;4.43;;;11.50;60.40;;;;;;5013670;28;20205;-72
2022/04/19 03:01:10;;;;;;;5.20;4.43;;;11.60;60.60;;;;;;5012883;28;20463;-74
2022/04/19 03:03:36;;;;;;;5.57;4.80;;;11.70;60.30;;;;;;5013550;28;20973;-74
2022/04/19 03:06:02;;;;;;;5.10;4.30;;;11.70;60.70;;;;;;5010187;28;20528;-73
2022/04/19 03:08:28;;;;;;;6.13;4.23;;;11.70;61.80;;;;;;5013924;28;20184;-72
2022/04/19 03:10:55;;;;;;;5.80;4.80;;;11.70;60.80;;;;;;5009250;28;20184;-73
2022/04/19 03:13:21;;;;;;;5.10;4.60;;;11.70;61.10;;;;;;5010896;28;20439;-74
2022/04/19 03:15:47;;;;;;;5.27;4.50;;;11.70;61.00;;;;;;5010631;28;20522;-74
2022/04/19 03:18:14;;;;;;;5.00;4.50;;;11.70;60.80;;;;;;5011661;28;20455;-73
2022/04/19 03:20:43;;;;;;;6.30;4.30;;;11.70;62.20;;;;;;5011678;28;20189;-72
2022/04/19 03:28:37;;;;;;;6.07;4.30;;;11.60;62.00;;;;;;5009827;28;20425;-72
2022/04/19 03:31:02;;;;;;;6.50;4.80;;;11.50;62.10;;;;;;5010027;28;20435;-71
2022/04/19 03:33:32;;;;;;;5.20;4.70;;;11.40;61.90;;;;;;5013431;28;20268;-74
2022/04/19 03:35:57;;;;;;;5.23;4.57;;;11.40;62.30;;;;;;5011315;28;20207;-74
2022/04/19 03:38:23;;;;;;;4.90;4.43;;;11.50;62.30;;;;;;5012432;28;21431;-74
2022/04/19 03:40:49;;;;;;;5.43;4.60;;;11.40;62.60;;;;;;5013393;28;20206;-72
2022/04/19 03:43:14;;;;;;;7.23;5.50;;;11.40;62.50;;;;;;5004897;28;20699;-73
2022/04/19 03:45:40;;;;;;;6.97;4.33;;;11.40;62.80;;;;;;5013457;28;20255;-72
2022/04/19 03:48:06;;;;;;;8.13;4.90;;;11.30;62.60;;;;;;5011377;28;20185;-72
2022/04/19 03:50:32;;;;;;;7.67;4.63;;;11.20;63.20;;;;;;5011373;28;20199;-73
2022/04/19 03:52:58;;;;;;;4.93;4.40;;;11.10;63.80;;;;;;5009690;28;20497;-74
2022/04/19 03:55:24;;;;;;;5.20;4.70;;;11.10;63.50;;;;;;5012839;28;20471;-73
2022/04/19 03:57:50;;;;;;;5.20;4.50;;;11.00;64.60;;;;;;5006135;28;20189;-71
2022/04/19 04:00:15;;;;;;;5.60;4.90;;;11.10;63.80;;;;;;5007278;28;20775;-72
2022/04/19 04:02:41;;;;;;;6.23;4.80;;;11.10;63.90;;;;;;5010341;28;20220;-72
2022/04/19 04:05:07;;;;;;;6.10;4.40;;;10.90;64.20;;;;;;5005571;28;20185;-72
2022/04/19 04:07:38;;;;;;;7.20;4.70;;;10.90;64.40;;;;;;5008474;28;20228;-73
2022/04/19 04:10:05;;;;;;;7.07;4.90;;;10.70;65.10;;;;;;5008291;28;20442;-72
2022/04/19 04:12:31;;;;;;;4.57;4.07;;;10.50;65.60;;;;;;5005628;28;21204;-72
2022/04/19 04:14:57;;;;;;;5.37;4.53;;;10.70;65.60;;;;;;5011489;28;20447;-74
2022/04/19 04:17:22;;;;;;;5.23;4.70;;;10.70;64.80;;;;;;5010943;28;20199;-71
2022/04/19 04:19:48;;;;;;;5.90;4.90;;;10.80;64.70;;;;;;5005515;28;20185;-72
2022/04/19 04:22:14;;;;;;;5.27;4.80;;;10.70;64.90;;;;;;5013147;28;20214;-74
2022/04/19 04:24:39;;;;;;;5.00;4.50;;;10.70;65.10;;;;;;5012617;28;20563;-71
2022/04/19 04:27:05;;;;;;;6.30;4.63;;;10.50;64.90;;;;;;5014830;28;20192;-71
2022/04/19 04:29:30;;;;;;;5.33;4.80;;;10.50;65.40;;;;;;5007954;28;20191;-73
2022/04/19 04:31:56;;;;;;;7.67;4.80;;;10.60;65.00;;;;;;5008818;28;20288;-74
2022/04/19 04:34:22;;;;;;;5.53;4.30;;;10.50;65.60;;;;;;5017918;28;20185;-74
2022/04/19 04:36:47;;;;;;;8.27;4.50;;;10.60;66.00;;;;;;5012246;28;20231;-72
2022/04/19 04:39:14;;;;;;;5.63;4.47;;;10.60;65.20;;;;;;5013950;28;20189;-72
2022/04/19 04:41:40;;;;;;;8.90;5.27;;;10.70;64.80;;;;;;5012131;28;20216;-72
2022/04/19 04:44:05;;;;;;;4.93;4.40;;;10.60;65.00;;;;;;5009130;28;20431;-72
2022/04/19 04:51:59;;;;;;;5.53;4.20;;;10.40;66.60;;;;;;5017143;28;20481;-71
2022/04/19 04:54:25;;;;;;;5.67;4.37;;;10.50;66.30;;;;;;5016738;28;20460;-73
2022/04/19 04:56:52;;;;;;;6.27;4.90;;;10.50;66.10;;;;;;5015207;28;20237;-72
2022/04/19 04:59:18;;;;;;;6.43;4.10;;;10.60;66.60;;;;;;5019150;28;20515;-73
2022/04/19 05:01:43;;;;;;;7.40;4.93;;;10.50;66.30;;;;;;5016948;28;20897;-73
2022/04/19 05:04:09;;;;;;;7.50;4.87;;;10.20;67.10;;;;;;5018932;28;20188;-70
2022/04/19 05:06:35;;;;;;;6.37;4.80;;;10.20;68.00;;;;;;5019279;28;20176;-73
2022/04/19 05:09:00;;;;;;;6.53;5.13;;;10.20;67.90;;;;;;5013182;28;20264;-73
2022/04/19 05:11:28;;;;;;;5.30;4.80;;;10.30;67.50;;;;;;5013414;28;20287;-72
2022/04/19 05:13:54;;;;;;;5.67;4.70;;;10.20;68.50;;;;;;5017528;28;20868;-74
2022/04/19 05:16:20;;;;;;;5.10;4.60;;;10.10;68.60;;;;;;5011713;28;21025;-73
2022/04/19 05:18:46;;;;;;;10.17;4.87;;;10.10;68.50;;;;;;5016936;28;20474;-74
2022/04/19 05:21:11;;;;;;;6.40;4.57;;;10.30;68.50;;;;;;5012939;28;20200;-73
2022/04/19 05:23:37;;;;;;;6.13;5.03;;;10.50;68.10;;;;;;5016984;28;20226;-73
2022/04/19 05:26:03;;;;;;;6.30;4.47;;;10.60;68.30;;;;;;5011868;28;20180;-71
2022/04/19 05:28:28;;;;;;;5.27;4.77;;;10.70;67.20;;;;;;5016482;28;20176;-72
2022/04/19 05:30:54;;;;;;;6.50;4.63;;;10.70;67.20;;;;;;5012978;28;20196;-73
2022/04/19 05:33:20;;;;;;;6.57;4.50;;;10.60;67.40;;;;;;5015377;28;20181;-75
2022/04/19 05:35:45;;;;;;;5.83;4.77;;;10.30;68.30;;;;;;5014081;28;20185;-75
2022/04/19 05:38:11;;;;;;;6.97;4.43;;;10.30;68.90;;;;;;5014018;28;20199;-74
2022/04/19 05:40:39;;;;;;;5.40;4.43;;;10.40;69.00;;;;;;5013483;28;20801;-72
2022/04/19 05:43:05;;;;;;;6.60;5.27;;;10.60;68.30;;;;;;5015772;28;20205;-73
2022/04/19 05:45:30;;;;;;;9.30;4.87;;;10.60;67.30;;;;;;5017241;28;20442;-72
2022/04/19 05:47:56;;;;;;;5.00;4.07;;;10.60;68.40;;;;;;5008249;28;20272;-74
2022/04/19 05:50:22;;;;;;;5.90;4.60;;;10.60;68.30;;;;;;5015120;28;20306;-74
2022/04/19 05:52:47;;;;;;;9.30;4.77;;;10.60;67.70;;;;;;5018101;28;20231;-74
2022/04/19 05:55:13;;;;;;;8.60;5.10;;;10.50;68.60;;;;;;5011942;28;20598;-73
2022/04/19 05:57:39;;;;;;;5.23;4.67;;;10.60;68.70;;;;;;5018141;28;20635;-72
2022/04/19 06:00:05;;;;;;;7.03;4.50;;;10.40;68.80;;;;;;5015857;28;20180;-72
2022/04/19 06:05:15;;;;;;;7.70;4.20;;;10.50;68.00;;;;;;5014966;28;20430;-72
2022/04/19 06:07:46;;;;;;;7.77;4.40;;;10.30;68.80;;;;;;5017670;28;20435;-72
2022/04/19 06:10:12;;;;;;;4.37;3.97;;;10.10;70.60;;;;;;5013403;28;20280;-73
2022/04/19 06:12:38;;;;;;;6.67;4.20;;;10.20;70.40;;;;;;5012545;28;20479;-72
2022/04/19 06:15:06;;;;;;;5.10;4.10;;;10.20;69.80;;;;;;5014195;28;20500;-73
2022/04/19 06:17:32;;;;;;;4.80;4.40;;;10.60;68.00;;;;;;5029061;28;20454;-72
2022/04/19 06:20:02;;;;;;;4.43;4.00;;;10.90;67.40;;;;;;5005612;28;20440;-72
2022/04/19 06:22:28;;;;;;;5.60;3.87;;;10.70;67.40;;;;;;5013438;28;20465;-73
2022/04/19 06:24:55;;;;;;;4.20;3.80;;;10.70;67.90;;;;;;5014300;28;20439;-74
2022/04/19 06:27:21;;;;;;;7.50;4.40;;;10.60;68.50;;;;;;5017251;28;20188;-72
2022/04/19 06:29:47;;;;;;;4.03;3.63;;;10.60;68.00;;;;;;5012278;28;20450;-72
2022/04/19 06:32:13;;;;;;;4.90;4.40;;;10.60;69.10;;;;;;5018436;28;20957;-73
2022/04/19 06:34:39;;;;;;;6.80;5.37;;;10.50;68.90;;;;;;5017830;28;20625;-71
2022/04/19 06:37:05;;;;;;;5.77;4.90;;;10.90;68.90;;;;;;5016580;28;20435;-72
2022/04/19 06:39:31;;;;;;;7.70;5.37;;;11.10;68.30;;;;;;5016879;28;20451;-73
2022/04/19 06:41:56;;;;;;;6.87;4.93;;;11.20;68.40;;;;;;5018661;28;20323;-73
2022/04/19 06:44:22;;;;;;;6.07;4.97;;;11.10;68.60;;;;;;5022587;28;20722;-73
2022/04/19 06:46:49;;;;;;;8.27;5.33;;;11.20;68.30;;;;;;5018470;28;20317;-73
2022/04/19 06:49:15;;;;;;;6.37;4.60;;;11.40;67.70;;;;;;5014407;28;20176;-73
2022/04/19 06:51:41;;;;;;;4.90;4.13;;;11.50;67.40;;;;;;5019196;28;20554;-73
2022/04/19 06:54:12;;;;;;;5.60;4.43;;;11.50;66.80;;;;;;5017055;28;20518;-74
2022/04/19 06:56:38;;;;;;;5.93;3.80;;;11.60;65.60;;;;;;5020256;28;20593;-73
2022/04/19 06:59:03;;;;;;;5.43;4.60;;;11.70;64.90;;;;;;5006262;28;20435;-72
2022/04/19 07:01:29;;;;;;;4.77;4.07;;;11.80;64.70;;;;;;5018605;28;20451;-71
2022/04/19 07:03:55;;;;;;;4.90;4.40;;;11.90;64.50;;;;;;5019582;28;20215;-75
2022/04/19 07:06:21;;;;;;;5.60;4.60;;;12.00;64.80;;;;;;5020086;28;20212;-75
2022/04/19 07:08:47;;;;;;;6.67;4.30;;;12.20;64.10;;;;;;5016566;28;20203;-75
2022/04/19 07:11:12;;;;;;;4.57;4.07;;;12.00;63.30;;;;;;5016225;28;20455;-73
2022/04/19 07:13:42;;;;;;;6.13;3.90;;;12.10;63.30;;;;;;5012971;28;20239;-74
2022/04/19 07:16:09;;;;;;;7.33;4.77;;;12.00;62.90;;;;;;5014735;28;20185;-73
2022/04/19 07:18:34;;;;;;;4.50;3.73;;;12.10;63.30;;;;;;5011312;28;20534;-72
2022/04/19 07:26:38;;;;;;;4.60;3.83;;;12.40;61.70;;;;;;5016077;28;20446;-71
2022/04/19 07:29:13;;;;;;;5.00;4.50;;;12.60;61.60;;;;;;5011212;28;20439;-73
2022/04/19 07:31:40;;;;;;;8.27;5.07;;;12.50;61.70;;;;;;5014387;28;20454;-73
2022/04/19 07:34:06;;;;;;;5.60;4.20;;;12.60;61.40;;;;;;5008767;28;20454;-75
2022/04/19 07:36:35;;;;;;;5.57;4.50;;;12.70;61.80;;;;;;5011053;28;20506;-72
2022/04/19 07:39:03;;;;;;;10.00;4.30;;;12.60;62.30;;;;;;5016965;28;20521;-74
2022/04/19 07:41:34;;;;;;;8.17;4.40;;;12.70;62.20;;;;;;5016788;28;20493;-72
2022/04/19 07:44:01;;;;;;;4.40;3.93;;;12.90;62.00;;;;;;5021459;28;20435;-73
2022/04/19 07:46:26;;;;;;;8.80;4.37;;;12.90;61.70;;;;;;5015842;28;20783;-73
2022/04/19 07:48:52;;;;;;;7.53;4.77;;;13.00;61.20;;;;;;5016300;28;20498;-72
2022/04/19 07:51:18;;;;;;;4.30;3.90;;;13.10;60.20;;;;;;5016433;28;20196;-75
2022/04/19 07:53:44;;;;;;;6.93;5.23;;;13.20;59.90;;;;;;5019295;28;20713;-72
2022/04/19 07:56:10;;;;;;;7.67;4.80;;;12.90;61.00;;;;;;5016687;28;20516;-72
2022/04/19 07:58:35;;;;;;;5.00;4.50;;;13.10;61.30;;;;;;5016583;28;20266;-73
2022/04/19 08:01:01;;;;;;;8.90;4.43;;;13.10;61.20;;;;;;5018687;28;20431;-72
2022/04/19 08:03:27;;;;;;;5.10;4.57;;;13.10;60.20;;;;;;5007653;28;20213;-73
2022/04/19 08:05:53;;;;;;;8.53;4.77;;;13.30;60.30;;;;;;5012678;28;20446;-73
2022/04/19 08:08:21;;;;;;;5.70;4.00;;;13.30;59.20;;;;;;5006609;28;20950;-73
2022/04/19 08:10:47;;;;;;;6.77;4.23;;;13.30;59.10;;;;;;5005492;28;20435;-71
2022/04/19 08:13:13;;;;;;;5.53;4.80;;;13.30;59.40;;;;;;5013106;28;20439;-73
2022/04/19 08:15:38;;;;;;;5.07;4.57;;;13.30;59.30;;;;;;5013804;28;20841;-72
2022/04/19 08:18:04;;;;;;;6.33;4.60;;;13.50;59.50;;;;;;5010519;28;20189;-74
2022/04/19 08:20:30;;;;;;;6.23;4.70;;;13.60;59.60;;;;;;5011247;28;20176;-72
2022/04/19 08:22:56;;;;;;;5.93;4.40;;;13.70;59.00;;;;;;5012141;28;20359;-75
2022/04/19 08:25:22;;;;;;;5.10;4.40;;;13.70;58.90;;;;;;5015237;28;20184;-74
2022/04/19 08:27:48;;;;;;;4.73;4.30;;;13.80;58.80;;;;;;5011968;28;20782;-72
2022/04/19 08:30:18;;;;;;;6.63;4.70;;;13.70;59.00;;;;;;5019526;28;20518;-73
2022/04/19 08:32:45;;;;;;;7.67;4.03;;;13.70;58.80;;;;;;5018897;28;20854;-74
2022/04/19 08:35:11;;;;;;;4.70;4.30;;;13.80;57.80;;;;;;5018296;28;20439;-71
2022/04/19 08:37:37;;;;;;;4.20;3.57;;;14.00;57.10;;;;;;5017094;28;20839;-73
2022/04/19 08:40:06;;;;;;;7.43;4.40;;;14.10;56.90;;;;;;5016348;28;20461;-72
2022/04/19 08:42:32;;;;;;;5.90;4.23;;;14.20;57.00;;;;;;5013071;28;20855;-72
2022/04/19 08:45:03;;;;;;;6.23;4.10;;;14.30;57.40;;;;;;5018665;28;21297;-72
2022/04/19 08:47:33;;;;;;;7.20;3.80;;;14.30;56.70;;;;;;5019094;28;20503;-76
2022/04/19 08:50:11;;;;;;;6.33;4.10;;;14.40;56.70;;;;;;5022188;28;20431;-75
2022/04/19 08:52:38;;;;;;;5.80;4.00;;;14.50;56.00;;;;;;5014629;28;20484;-71
2022/04/19 08:57:52;;;;;;;7.20;4.40;;;14.70;55.90;;;;;;5019476;28;20458;-72
2022/04/19 09:00:22;;;;;;;4.83;4.33;;;14.80;56.10;;;;;;5020106;28;20909;-73
2022/04/19 09:02:49;;;;;;;5.40;4.23;;;14.90;56.50;;;;;;5018934;28;20211;-75
2022/04/19 09:05:15;;;;;;;5.20;3.97;;;15.00;56.80;;;;;;5023001;28;20427;-72
2022/04/19 09:07:41;;;;;;;4.43;4.00;;;15.00;55.90;;;;;;5021393;28;20478;-73
2022/04/19 09:10:11;;;;;;;8.43;4.80;;;15.20;55.50;;;;;;5010039;28;20180;-75
2022/04/19 09:12:37;;;;;;;5.27;4.77;;;15.20;55.50;;;;;;5018802;28;20447;-72
2022/04/19 09:15:06;;;;;;;6.43;4.30;;;15.30;55.70;;;;;;5019162;28;20451;-72
2022/04/19 09:17:40;;;;;;;5.10;4.60;;;15.50;56.10;;;;;;5022133;28;20434;-76
2022/04/19 09:20:18;;;;;;;4.90;4.20;;;15.50;55.60;;;;;;5018301;28;20457;-72
2022/04/19 09:22:58;;;;;;;5.60;4.73;;;15.60;55.90;;;;;;5018727;28;21369;-73
2022/04/19 09:25:26;;;;;;;9.60;4.10;;;15.50;56.10;;;;;;5016152;28;20882;-75
2022/04/19 09:27:54;;;;;;;5.93;4.47;;;15.50;56.90;;;;;;5017458;28;20934;-74
2022/04/19 09:30:20;;;;;;;5.60;4.40;;;15.60;56.60;;;;;;5018225;28;21073;-76
2022/04/19 09:33:06;;;;;;;6.47;4.80;;;15.70;56.10;;;;;;5021115;28;20455;-72
2022/04/19 09:35:32;;;;;;;5.53;4.23;;;15.70;56.60;;;;;;5016588;28;20474;-74
2022/04/19 09:37:58;;;;;;;5.53;4.40;;;15.70;56.70;;;;;;5016133;28;20439;-74
2022/04/19 09:40:37;;;;;;;5.40;4.77;;;15.70;56.70;;;;;;5016198;28;20546;-75
2022/04/19 09:43:11;;;;;;;5.40;4.50;;;15.80;56.40;;;;;;5011145;28;20514;-75
2022/04/19 09:45:50;;;;;;;5.30;4.40;;;15.80;56.80;;;;;;5013980;28;20499;-74
2022/04/19 09:48:24;;;;;;;5.13;4.60;;;15.70;56.70;;;;;;5017788;28;20783;-73
2022/04/19 09:50:57;;;;;;;5.40;4.17;;;15.70;56.80;;;;;;5016193;28;20424;-74
2022/04/19 09:53:25;;;;;;;6.50;5.60;;;15.90;56.50;;;;;;5015920;28;20558;-74
2022/04/19 09:55:53;;;;;;;5.50;4.47;;;16.00;55.70;;;;;;5016703;28;20519;-75
2022/04/19 09:58:20;;;;;;;5.10;4.70;;;16.10;55.80;;;;;;5015212;28;21021;-73
2022/04/19 10:00:47;;;;;;;6.30;4.90;;;16.00;55.50;;;;;;5013391;28;20442;-75
2022/04/19 10:08:47;;;;;;;6.00;4.83;;;16.20;53.60;;;;;;5018340;28;20454;-78
2022/04/19 10:11:15;;;;;;;4.97;4.47;;;16.10;53.90;;;;;;5016478;28;20565;-74
2022/04/19 10:13:41;;;;;;;6.43;5.40;;;16.20;54.20;;;;;;5020044;28;20423;-75
2022/04/19 10:16:16;;;;;;;5.60;4.90;;;16.40;54.40;;;;;;5009993;28;20824;-75
2022/04/19 10:18:45;;;;;;;5.27;4.77;;;16.50;53.70;;;;;;5009162;28;20188;-73
2022/04/19 10:21:15;;;;;;;5.40;4.80;;;16.60;54.30;;;;;;5011101;28;21176;-75
2022/04/19 10:23:42;;;;;;;7.13;4.80;;;16.80;53.50;;;;;;5006361;28;20478;-74
2022/04/19 10:26:14;;;;;;;7.83;5.00;;;16.80;52.90;;;;;;5014199;28;20803;-75
2022/04/19 10:28:40;;;;;;;5.33;4.80;;;16.80;52.50;;;;;;5016631;28;20419;-73
2022/04/19 10:31:07;;;;;;;8.33;5.33;;;16.80;52.50;;;;;;5009045;28;20475;-73
2022/04/19 10:33:39;;;;;;;9.00;4.80;;;16.90;52.30;;;;;;5007316;28;20949;-74
2022/04/19 10:36:20;;;;;;;6.03;4.60;;;17.10;52.30;;;;;;5010842;28;20447;-73
2022/04/19 10:39:07;;;;;;;5.97;4.90;;;17.20;51.40;;;;;;5014588;28;20900;-73
2022/04/19 10:42:02;;;;;;;5.63;5.03;;;17.20;50.50;;;;;;5014156;28;20482;-72
2022/04/19 10:44:52;;;;;;;4.87;4.37;;;17.30;50.20;;;;;;5023641;28;20943;-73
2022/04/19 10:47:20;;;;;;;5.43;4.30;;;17.40;49.70;;;;;;5012172;28;20501;-73
2022/04/19 10:50:02;;;;;;;6.70;5.10;;;17.40;49.60;;;;;;5019442;28;20438;-73
2022/04/19 10:52:39;;;;;;;6.23;4.77;;;17.30;49.90;;;;;;5020240;28;20545;-74
2022/04/19 10:55:08;;;;;;;6.97;5.03;;;17.50;50.20;;;;;;5020037;28;20453;-73
2022/04/19 11:00:27;;;;;;;5.17;4.67;;;17.70;48.60;;;;;;5018028;28;20493;-72
2022/04/19 11:03:00;;;;;;;5.40;4.20;;;17.70;48.00;;;;;;5019848;28;20903;-71
2022/04/19 11:05:41;;;;;;;5.17;4.67;;;17.60;47.80;;;;;;5018353;28;20526;-73
2022/04/19 11:08:26;;;;;;;4.70;4.20;;;17.60;47.90;;;;;;5020526;28;20442;-71
2022/04/19 11:10:55;;;;;;;4.83;4.20;;;17.60;46.80;;;;;;5012404;28;20542;-72
2022/04/19 11:13:22;;;;;;;5.03;4.20;;;17.60;46.80;;;;;;5010704;28;20508;-73
2022/04/19 11:16:06;;;;;;;4.80;4.10;;;17.70;46.40;;;;;;5011172;28;20895;-72
2022/04/19 11:18:53;;;;;;;5.30;4.33;;;17.80;46.20;;;;;;5011103;28;20445;-73
2022/04/19 11:22:08;;;;;;;5.30;3.93;;;17.80;44.80;;;;;;5010618;28;20943;-75
2022/04/19 11:25:00;;;;;;;4.17;3.77;;;17.90;44.30;;;;;;5016799;28;20441;-73
2022/04/19 11:27:52;;;;;;;8.50;4.80;;;18.10;45.60;;;;;;5014145;28;20950;-73
2022/04/19 11:30:17;;;;;;;11.17;4.67;;;18.10;42.70;;;;;;4999388;28;20447;-73
2022/04/19 11:32:49;;;;;;;4.67;4.00;;;18.20;43.30;;;;;;5017041;28;20467;-74
2022/04/19 11:35:16;;;;;;;4.70;4.30;;;18.20;44.20;;;;;;5013601;28;20625;-74
2022/04/19 11:37:43;;;;;;;4.00;3.40;;;18.40;44.40;;;;;;5015209;28;20438;-74
2022/04/19 11:48:50;;;;;;;4.57;4.17;;;18.90;41.20;;;;;;5016648;28;20434;-74
2022/04/19 11:51:20;;;;;;;4.50;4.10;;;19.00;41.60;;;;;;5016233;28;20443;-73
2022/04/19 11:53:46;;;;;;;6.63;4.63;;;19.00;42.90;;;;;;5016408;28;20439;-73
2022/04/19 11:56:11;;;;;;;5.50;4.50;;;19.00;41.90;;;;;;5016366;28;20443;-74
2022/04/19 11:58:41;;;;;;;5.40;4.80;;;19.10;40.90;;;;;;5016851;28;20454;-73
2022/04/19 12:01:10;;;;;;;5.00;4.37;;;19.40;41.70;;;;;;5017873;28;20208;-74
2022/04/19 12:03:37;;;;;;;4.33;3.93;;;19.90;41.50;;;;;;5018110;28;20466;-73
2022/04/19 12:06:11;;;;;;;4.17;3.77;;;20.30;40.50;;;;;;5017204;28;20470;-74
2022/04/19 12:08:37;;;;;;;4.83;4.20;;;20.80;40.10;;;;;;5012464;28;20518;-74
2022/04/19 12:11:08;;;;;;;5.17;4.50;;;21.20;39.20;;;;;;5000086;28;20443;-75
2022/04/19 12:13:35;;;;;;;5.47;4.80;;;21.70;39.20;;;;;;5010110;28;20450;-74
2022/04/19 12:16:03;;;;;;;5.10;4.57;;;22.30;39.30;;;;;;5010325;28;20474;-75
2022/04/19 12:18:34;;;;;;;5.83;5.33;;;22.70;37.70;;;;;;5007581;28;21063;-74
2022/04/19 12:21:00;;;;;;;5.93;4.90;;;22.70;37.10;;;;;;5012792;28;20442;-75
2022/04/19 12:23:26;;;;;;;5.33;4.63;;;23.00;37.10;;;;;;5004661;28;20464;-74
2022/04/19 12:25:59;;;;;;;5.40;4.90;;;23.40;33.70;;;;;;5016507;28;20462;-75
2022/04/19 12:28:45;;;;;;;5.70;4.90;;;23.70;33.70;;;;;;5011361;28;20473;-74
2022/04/19 12:31:32;;;;;;;4.93;4.43;;;24.00;33.80;;;;;;5010022;28;20545;-74
2022/04/19 12:33:58;;;;;;;5.30;4.80;;;24.40;34.60;;;;;;5006520;28;20431;-74
2022/04/19 12:36:26;;;;;;;5.40;4.87;;;24.50;34.30;;;;;;5017262;28;20447;-75
2022/04/19 12:39:03;;;;;;;4.73;4.27;;;24.70;34.20;;;;;;5014475;28;20453;-74
2022/04/19 12:41:47;;;;;;;4.40;4.10;;;24.70;34.50;;;;;;5017742;28;20491;-76
2022/04/19 12:44:14;;;;;;;4.07;3.77;;;24.90;33.80;;;;;;5015637;28;20435;-73
2022/04/19 12:46:50;;;;;;;4.70;4.20;;;24.00;32.70;;;;;;5011213;28;20435;-73
2022/04/19 12:49:20;;;;;;;3.90;3.50;;;24.30;33.00;;;;;;5007295;28;20912;-75
2022/04/19 12:52:01;;;;;;;5.57;4.07;;;24.60;31.60;;;;;;5009152;28;20459;-74
2022/04/19 12:54:28;;;;;;;4.40;4.00;;;25.00;32.20;;;;;;5008021;28;20462;-74
2022/04/19 12:57:09;;;;;;;4.43;4.03;;;25.50;31.40;;;;;;5009510;28;20439;-75
2022/04/19 12:59:35;;;;;;;4.57;4.17;;;25.40;30.00;;;;;;5013905;28;20500;-74
2022/04/19 13:02:01;;;;;;;4.17;3.87;;;25.70;29.80;;;;;;5015928;28;20456;-73
2022/04/19 13:04:27;;;;;;;5.57;4.40;;;25.20;29.10;;;;;;5015244;28;20195;-75
2022/04/19 13:12:26;;;;;;;5.50;5.00;;;25.30;31.20;;;;;;5011577;28;20484;-76
2022/04/19 13:14:55;;;;;;;5.80;5.17;;;25.50;31.90;;;;;;5014561;28;20439;-76
2022/04/19 13:17:22;;;;;;;6.00;5.40;;;26.40;31.90;;;;;;5020905;28;20466;-77
2022/04/19 13:19:47;;;;;;;6.23;5.20;;;27.70;31.40;;;;;;5018773;28;20199;-75
2022/04/19 13:22:14;;;;;;;5.90;5.13;;;29.80;30.50;;;;;;5015019;28;20901;-78
2022/04/19 13:24:41;;;;;;;5.87;5.37;;;31.50;29.30;;;;;;5017995;28;20693;-78
2022/04/19 13:27:09;;;;;;;5.30;4.80;;;32.10;29.00;;;;;;5012607;28;20543;-76
2022/04/19 13:29:35;;;;;;;4.50;4.10;;;33.40;27.70;;;;;;5009720;28;20821;-75
2022/04/19 13:32:01;;;;;;;4.70;4.30;;;33.70;26.10;;;;;;5017718;28;20436;-73
2022/04/19 13:34:28;;;;;;;6.80;4.80;;;33.10;25.40;;;;;;5014532;28;20434;-73
2022/04/19 13:36:58;;;;;;;6.00;5.10;;;32.10;25.60;;;;;;5011715;28;20504;-73
2022/04/19 13:39:24;;;;;;;6.90;5.33;;;32.90;26.20;;;;;;5015263;28;20436;-74